Time;durP1;ratioP1;P1;durP2;ratioP2;P2;SDS_P1;SDS_P2;PMS_P1;PMS_P2;Temp;Humidity;BMP_temperature;BMP_pressure;BME280_temperature;BME280_humidity;BME280_pressure;Samples;Min_cycle;Max_cycle;Signal;HPM_P1;HPM_P2
2023/12/03 00:00:39;;;;;;;29.55;15.77;;;-4.90;99.90;;;;;;494033;241;27509;-73
2023/12/03 00:02:42;;;;;;;25.75;15.75;;;-4.90;99.90;;;;;;494024;241;27466;-71
2023/12/03 00:04:41;;;;;;;26.10;15.70;;;-4.90;99.90;;;;;;493874;241;27537;-72
2023/12/03 00:06:42;;;;;;;27.42;16.37;;;-4.90;99.90;;;;;;494044;241;27933;-75
2023/12/03 00:08:44;;;;;;;27.52;15.90;;;-4.90;99.90;;;;;;494056;241;27552;-72
2023/12/03 00:10:45;;;;;;;29.63;16.80;;;-4.90;99.90;;;;;;493986;241;27991;-72
2023/12/03 00:12:46;;;;;;;26.20;15.50;;;-5.00;99.90;;;;;;494034;241;27451;-71
2023/12/03 00:14:47;;;;;;;31.50;18.52;;;-4.90;99.90;;;;;;494068;241;27481;-71
2023/12/03 00:16:49;;;;;;;24.42;15.35;;;-5.00;99.90;;;;;;493946;241;27569;-74
2023/12/03 00:18:50;;;;;;;32.25;18.70;;;-5.00;99.90;;;;;;493990;241;27466;-72
2023/12/03 00:20:51;;;;;;;30.95;16.70;;;-5.00;99.90;;;;;;493975;241;27518;-72
2023/12/03 00:22:53;;;;;;;27.95;15.20;;;-4.90;99.90;;;;;;493977;241;28727;-71
2023/12/03 00:24:54;;;;;;;33.00;17.62;;;-4.90;99.90;;;;;;494047;241;27985;-72
2023/12/03 00:26:55;;;;;;;32.00;17.83;;;-4.90;99.90;;;;;;494027;241;27532;-72
2023/12/03 00:28:56;;;;;;;28.65;16.45;;;-4.80;99.90;;;;;;494034;241;27465;-72
2023/12/03 00:30:58;;;;;;;34.28;17.60;;;-4.80;99.90;;;;;;493916;241;27507;-72
2023/12/03 00:32:59;;;;;;;28.42;17.12;;;-4.80;99.90;;;;;;493982;241;27514;-73
2023/12/03 00:35:00;;;;;;;29.63;17.67;;;-4.80;99.90;;;;;;494001;241;27456;-72
2023/12/03 00:37:01;;;;;;;31.58;19.23;;;-4.90;99.90;;;;;;494030;241;27491;-71
2023/12/03 00:39:03;;;;;;;33.70;17.60;;;-4.90;99.90;;;;;;493987;241;27978;-72
2023/12/03 00:41:04;;;;;;;30.33;18.20;;;-4.80;99.90;;;;;;493977;241;28044;-72
2023/12/03 00:43:05;;;;;;;38.20;19.85;;;-4.80;99.90;;;;;;494027;241;27525;-72
2023/12/03 00:45:06;;;;;;;35.58;18.25;;;-4.80;99.90;;;;;;493980;241;27538;-71
2023/12/03 00:47:08;;;;;;;38.72;20.45;;;-4.80;99.90;;;;;;493965;241;27510;-72
2023/12/03 00:49:09;;;;;;;34.58;18.80;;;-4.80;99.90;;;;;;493989;241;27504;-73
2023/12/03 00:51:10;;;;;;;33.80;17.67;;;-4.80;99.90;;;;;;494073;241;27485;-72
2023/12/03 00:53:11;;;;;;;33.13;17.90;;;-4.90;99.90;;;;;;494017;237;27998;-72
2023/12/03 00:55:13;;;;;;;34.40;17.73;;;-4.90;99.90;;;;;;494017;241;27595;-72
2023/12/03 00:57:14;;;;;;;31.62;17.60;;;-5.00;99.90;;;;;;493995;241;27504;-71
2023/12/03 00:59:15;;;;;;;26.40;15.60;;;-5.00;99.90;;;;;;494049;241;27521;-72
2023/12/03 01:01:17;;;;;;;27.30;16.02;;;-4.90;99.90;;;;;;493989;241;27470;-71
2023/12/03 01:03:18;;;;;;;31.40;18.70;;;-5.00;99.90;;;;;;494019;241;27492;-72
2023/12/03 01:05:19;;;;;;;30.40;16.48;;;-5.00;99.90;;;;;;493998;241;28697;-71
2023/12/03 01:07:20;;;;;;;31.20;16.37;;;-5.00;99.90;;;;;;493935;241;27938;-71
2023/12/03 01:09:22;;;;;;;29.70;16.00;;;-5.00;99.90;;;;;;493991;241;27606;-72
2023/12/03 01:11:24;;;;;;;33.00;17.55;;;;;;;;;;493964;241;27568;-72
2023/12/03 01:13:25;;;;;;;31.30;16.62;;;-5.10;99.90;;;;;;493996;241;27561;-71
2023/12/03 01:15:27;;;;;;;35.38;19.83;;;-5.00;99.90;;;;;;494004;241;27575;-71
2023/12/03 01:17:28;;;;;;;35.83;18.23;;;-5.00;99.90;;;;;;493945;241;27498;-71
2023/12/03 01:19:29;;;;;;;31.17;17.58;;;-5.00;99.90;;;;;;494004;241;27462;-71
2023/12/03 01:21:30;;;;;;;34.53;18.70;;;-5.00;99.90;;;;;;494019;241;27580;-73
2023/12/03 01:23:32;;;;;;;39.75;18.55;;;-4.90;99.90;;;;;;494061;241;27999;-73
2023/12/03 01:25:33;;;;;;;30.83;17.25;;;-4.80;99.90;;;;;;493976;241;27923;-72
2023/12/03 01:27:34;;;;;;;40.40;20.25;;;-4.70;99.90;;;;;;493985;241;27601;-72
2023/12/03 01:29:35;;;;;;;35.83;19.42;;;-4.70;99.90;;;;;;493972;241;27502;-71
2023/12/03 01:31:37;;;;;;;31.25;17.98;;;-4.60;99.90;;;;;;493998;241;27450;-72
2023/12/03 01:33:38;;;;;;;42.67;21.00;;;-4.50;99.90;;;;;;493954;241;27584;-73
2023/12/03 01:35:39;;;;;;;36.72;20.27;;;-4.50;99.90;;;;;;494007;241;27883;-72
2023/12/03 01:37:40;;;;;;;30.98;17.08;;;-4.50;99.90;;;;;;493940;241;27981;-71
2023/12/03 01:39:42;;;;;;;42.97;22.58;;;-4.40;99.90;;;;;;493976;241;27623;-73
2023/12/03 01:41:43;;;;;;;35.72;19.45;;;-4.30;99.90;;;;;;493998;241;27587;-71
2023/12/03 01:43:44;;;;;;;35.05;19.35;;;-4.30;99.90;;;;;;493969;241;27482;-71
2023/12/03 01:45:47;;;;;;;43.33;21.85;;;;;;;;;;493975;241;27613;-71
2023/12/03 01:47:49;;;;;;;36.72;19.25;;;;;;;;;;494010;241;27280;-71
2023/12/03 01:49:52;;;;;;;40.95;21.25;;;;;;;;;;493979;241;27510;-71
2023/12/03 01:51:54;;;;;;;33.33;19.12;;;;;;;;;;494016;241;26929;-72
2023/12/03 01:53:55;;;;;;;44.20;21.77;;;-4.30;99.90;;;;;;494012;239;26999;-72
2023/12/03 01:55:58;;;;;;;36.28;19.98;;;;;;;;;;493993;240;27505;-71
2023/12/03 01:57:59;;;;;;;37.45;19.77;;;-4.30;99.90;;;;;;493981;241;27274;-71
2023/12/03 02:00:00;;;;;;;38.60;19.62;;;-4.30;99.90;;;;;;494049;241;27528;-74
2023/12/03 02:02:03;;;;;;;37.42;20.73;;;;;;;;;;493997;241;27490;-71
2023/12/03 02:04:05;;;;;;;35.95;19.92;;;;;;;;;;494030;241;27277;-71
2023/12/03 02:06:07;;;;;;;39.83;20.98;;;;;;;;;;493973;241;26620;-72
2023/12/03 02:08:09;;;;;;;40.72;20.20;;;-4.10;99.90;;;;;;494030;241;27162;-71
2023/12/03 02:10:10;;;;;;;34.53;20.30;;;-4.10;99.90;;;;;;494040;241;27457;-71
2023/12/03 02:12:13;;;;;;;37.92;21.20;;;;;;;;;;494078;241;27478;-72
2023/12/03 02:14:14;;;;;;;38.90;20.92;;;-4.00;99.90;;;;;;494079;241;27229;-71
2023/12/03 02:16:16;;;;;;;38.10;20.52;;;;;;;;;;494015;241;27602;-73
2023/12/03 02:18:19;;;;;;;41.33;21.60;;;;;;;;;;494070;241;27246;-72
2023/12/03 02:20:21;;;;;;;39.85;20.05;;;;;;;;;;494069;241;26786;-71
2023/12/03 02:22:23;;;;;;;40.58;20.65;;;;;;;;;;494008;237;27443;-72
2023/12/03 02:24:25;;;;;;;36.67;19.60;;;-4.00;99.90;;;;;;494085;241;26833;-72
2023/12/03 02:26:26;;;;;;;32.25;19.08;;;-4.00;99.90;;;;;;494002;241;28039;-71
2023/12/03 02:28:27;;;;;;;34.17;18.67;;;-3.90;99.90;;;;;;493987;241;27644;-72
2023/12/03 02:30:28;;;;;;;33.25;18.12;;;-3.90;99.90;;;;;;494015;241;27547;-73
2023/12/03 02:32:31;;;;;;;34.75;18.85;;;;;;;;;;493985;241;27055;-72
2023/12/03 02:34:33;;;;;;;36.88;20.80;;;;;;;;;;493992;241;27108;-71
2023/12/03 02:36:36;;;;;;;40.03;20.85;;;;;;;;;;493994;241;27416;-72
2023/12/03 02:38:38;;;;;;;35.45;19.67;;;;;;;;;;494064;241;26833;-76
2023/12/03 02:40:41;;;;;;;33.28;18.55;;;;;;;;;;494032;241;26840;-73
2023/12/03 02:42:42;;;;;;;41.05;22.00;;;-3.70;99.90;;;;;;494087;241;26794;-71
2023/12/03 02:44:43;;;;;;;37.55;19.70;;;-3.70;99.90;;;;;;494005;241;27054;-72
2023/12/03 02:46:46;;;;;;;32.67;17.67;;;;;;;;;;494006;241;27490;-72
2023/12/03 02:48:48;;;;;;;35.17;19.62;;;;;;;;;;494070;241;26845;-73
2023/12/03 02:50:49;;;;;;;35.80;19.40;;;-3.70;99.90;;;;;;494050;241;27115;-71
2023/12/03 02:52:50;;;;;;;34.72;18.17;;;-3.60;99.90;;;;;;493975;241;27110;-71
2023/12/03 02:54:52;;;;;;;34.13;18.75;;;-3.60;99.90;;;;;;493994;241;27135;-71
2023/12/03 02:56:53;;;;;;;39.85;20.52;;;-3.60;99.90;;;;;;494008;241;27080;-72
2023/12/03 02:58:54;;;;;;;33.83;18.50;;;-3.60;99.90;;;;;;493985;239;27465;-71
2023/12/03 03:00:57;;;;;;;33.47;18.02;;;;;;;;;;494030;241;27498;-74
2023/12/03 03:02:59;;;;;;;34.97;19.77;;;;;;;;;;494012;241;26682;-73
2023/12/03 03:05:02;;;;;;;36.85;20.08;;;;;;;;;;493996;241;27947;-71
2023/12/03 03:07:03;;;;;;;33.17;17.50;;;-3.60;99.90;;;;;;493952;241;26940;-72
2023/12/03 03:09:04;;;;;;;32.50;18.83;;;-3.50;99.90;;;;;;494048;241;27481;-71
2023/12/03 03:11:07;;;;;;;36.85;19.37;;;;;;;;;;494028;238;27497;-72
2023/12/03 03:13:09;;;;;;;37.83;18.67;;;;;;;;;;494086;241;26628;-72
2023/12/03 03:15:11;;;;;;;32.35;18.17;;;;;;;;;;494005;241;27328;-72
2023/12/03 03:17:14;;;;;;;41.47;21.50;;;;;;;;;;494037;241;26599;-72
2023/12/03 03:19:16;;;;;;;41.97;21.25;;;;;;;;;;494041;241;26623;-71
2023/12/03 03:21:19;;;;;;;41.05;20.85;;;;;;;;;;494083;237;27301;-72
2023/12/03 03:23:21;;;;;;;38.33;19.62;;;;;;;;;;494026;237;26624;-72
2023/12/03 03:25:22;;;;;;;38.47;20.00;;;-3.50;99.90;;;;;;493966;241;26652;-71
2023/12/03 03:27:24;;;;;;;37.72;20.33;;;-3.40;99.90;;;;;;494000;241;27079;-72
2023/12/03 03:29:26;;;;;;;39.58;21.42;;;;;;;;;;493981;241;27225;-72
2023/12/03 03:31:27;;;;;;;40.58;21.73;;;-3.40;99.90;;;;;;494024;241;27939;-73
2023/12/03 03:33:29;;;;;;;39.97;21.55;;;-3.30;99.90;;;;;;493998;241;27065;-72
2023/12/03 03:35:32;;;;;;;38.97;21.30;;;;;;;;;;494013;241;27235;-72
2023/12/03 03:37:32;;;;;;;36.45;19.92;;;-3.40;99.90;;;;;;493962;240;27188;-71
2023/12/03 03:39:34;;;;;;;43.60;21.00;;;-3.30;99.90;;;;;;494010;241;27176;-73
2023/12/03 03:41:35;;;;;;;40.40;21.98;;;-3.30;99.90;;;;;;494009;241;27221;-71
2023/12/03 03:43:36;;;;;;;37.40;20.60;;;-3.20;99.90;;;;;;494074;241;27166;-72
2023/12/03 03:45:37;;;;;;;39.85;20.83;;;-3.30;99.90;;;;;;494084;241;27008;-72
2023/12/03 03:47:39;;;;;;;36.40;19.02;;;-3.20;99.90;;;;;;494001;241;27779;-72
2023/12/03 03:49:40;;;;;;;34.28;18.50;;;-3.20;99.90;;;;;;493977;241;27790;-72
2023/12/03 03:51:41;;;;;;;36.65;19.65;;;-3.20;99.90;;;;;;494027;241;27216;-72
2023/12/03 03:53:42;;;;;;;36.60;19.12;;;-3.20;99.90;;;;;;494035;241;27256;-72
2023/12/03 03:55:44;;;;;;;37.20;20.52;;;-3.20;99.90;;;;;;494040;241;27723;-74
2023/12/03 03:57:45;;;;;;;36.78;19.50;;;-3.20;99.90;;;;;;494054;241;27129;-71
2023/12/03 03:59:46;;;;;;;35.70;19.30;;;-3.20;99.90;;;;;;494041;241;27329;-73
2023/12/03 04:01:47;;;;;;;42.80;21.52;;;-3.20;99.90;;;;;;494054;241;28812;-72
2023/12/03 04:03:49;;;;;;;35.55;18.98;;;-3.20;99.90;;;;;;494034;241;27290;-72
2023/12/03 04:05:50;;;;;;;34.83;18.92;;;-3.10;99.90;;;;;;494048;241;27300;-73
2023/12/03 04:07:51;;;;;;;35.47;18.65;;;-3.10;99.90;;;;;;493979;241;27142;-72
2023/12/03 04:09:52;;;;;;;38.50;20.70;;;-3.10;99.90;;;;;;493966;237;27210;-72
2023/12/03 04:11:54;;;;;;;38.38;21.50;;;-3.20;99.90;;;;;;493991;241;27311;-72
2023/12/03 04:13:55;;;;;;;37.42;20.12;;;-3.20;99.90;;;;;;493999;241;27717;-72
2023/12/03 04:15:57;;;;;;;35.60;19.52;;;-3.20;99.90;;;;;;494032;241;27827;-72
2023/12/03 04:17:57;;;;;;;38.38;20.33;;;-3.20;99.90;;;;;;494045;241;27240;-72
2023/12/03 04:20:00;;;;;;;33.25;19.20;;;;;;;;;;494056;241;27329;-74
2023/12/03 04:22:01;;;;;;;29.83;16.90;;;-3.30;99.90;;;;;;493978;241;27061;-71
2023/12/03 04:24:02;;;;;;;34.00;18.73;;;-3.20;99.90;;;;;;494058;241;27077;-73
2023/12/03 04:26:04;;;;;;;41.05;20.42;;;-3.20;99.90;;;;;;494064;241;27145;-72
2023/12/03 04:28:05;;;;;;;37.90;20.17;;;-3.10;99.90;;;;;;494015;241;27404;-72
2023/12/03 04:30:06;;;;;;;38.03;20.02;;;-3.20;99.90;;;;;;493878;241;27175;-72
2023/12/03 04:32:07;;;;;;;33.10;18.23;;;-3.10;99.90;;;;;;494012;241;27514;-72
2023/12/03 04:34:09;;;;;;;39.75;19.83;;;-3.10;99.90;;;;;;493957;241;27835;-71
2023/12/03 04:36:10;;;;;;;38.30;20.80;;;-3.10;99.90;;;;;;493982;241;27136;-71
2023/12/03 04:38:11;;;;;;;37.58;19.62;;;-3.10;99.90;;;;;;493993;241;27148;-72
2023/12/03 04:40:12;;;;;;;41.55;19.85;;;-3.10;99.90;;;;;;494020;241;27185;-72
2023/12/03 04:42:14;;;;;;;42.00;19.92;;;-3.00;99.90;;;;;;494035;237;27280;-72
2023/12/03 04:44:16;;;;;;;36.03;18.92;;;;;;;;;;494041;241;27191;-75
2023/12/03 04:46:17;;;;;;;37.78;19.15;;;-3.10;99.90;;;;;;494094;241;26601;-72
2023/12/03 04:48:19;;;;;;;36.33;19.45;;;-3.00;99.90;;;;;;494051;241;27161;-72
2023/12/03 04:50:20;;;;;;;35.80;20.20;;;-3.00;99.90;;;;;;494074;241;27363;-71
2023/12/03 04:52:21;;;;;;;34.47;18.45;;;-3.00;99.90;;;;;;493989;241;27593;-71
2023/12/03 04:54:22;;;;;;;34.55;18.83;;;-3.00;99.90;;;;;;494035;241;27784;-73
2023/12/03 04:56:24;;;;;;;35.30;18.37;;;-3.00;99.90;;;;;;494018;241;27152;-72
2023/12/03 04:58:25;;;;;;;38.97;20.20;;;-3.00;99.90;;;;;;494065;241;27364;-72
2023/12/03 05:00:26;;;;;;;38.28;18.95;;;-3.00;99.90;;;;;;493968;241;27410;-71
2023/12/03 05:02:28;;;;;;;32.83;18.20;;;-3.00;99.90;;;;;;493995;241;27137;-72
2023/12/03 05:04:29;;;;;;;38.38;19.80;;;-3.00;99.90;;;;;;494088;241;27693;-72
2023/12/03 05:06:30;;;;;;;35.30;18.40;;;-3.00;99.90;;;;;;494046;241;28777;-71
2023/12/03 05:08:31;;;;;;;33.30;18.87;;;-3.00;99.90;;;;;;494032;241;27280;-73
2023/12/03 05:10:33;;;;;;;38.25;19.58;;;-2.90;99.90;;;;;;494069;241;27248;-72
2023/12/03 05:12:34;;;;;;;31.02;18.17;;;-3.00;99.90;;;;;;494046;241;27208;-72
2023/12/03 05:14:37;;;;;;;40.00;20.80;;;-3.00;99.90;;;;;;493970;241;27087;-73
2023/12/03 05:16:36;;;;;;;30.90;17.30;;;-3.00;99.90;;;;;;493838;241;27252;-72
2023/12/03 05:18:38;;;;;;;34.90;19.23;;;-2.90;99.90;;;;;;493984;241;27842;-72
2023/12/03 05:20:39;;;;;;;34.20;17.55;;;-2.90;99.90;;;;;;494032;241;27267;-73
2023/12/03 05:22:40;;;;;;;33.42;17.70;;;-2.90;99.90;;;;;;494002;241;27292;-72
2023/12/03 05:24:41;;;;;;;34.00;17.90;;;-2.90;99.90;;;;;;494042;241;27385;-72
2023/12/03 05:26:43;;;;;;;36.10;18.33;;;-2.90;99.90;;;;;;494051;241;27173;-72
2023/12/03 05:28:44;;;;;;;31.83;18.05;;;-2.90;99.90;;;;;;494037;241;27337;-72
2023/12/03 05:30:45;;;;;;;36.42;19.05;;;-2.80;99.90;;;;;;494068;241;27842;-72
2023/12/03 05:32:46;;;;;;;35.10;18.70;;;-2.80;99.90;;;;;;494000;241;28085;-72
2023/12/03 05:34:48;;;;;;;38.10;20.15;;;-2.80;99.90;;;;;;494057;241;27444;-72
2023/12/03 05:36:49;;;;;;;32.13;17.37;;;-2.80;99.90;;;;;;494022;241;27484;-71
2023/12/03 05:38:50;;;;;;;30.58;17.92;;;-2.80;99.90;;;;;;494067;241;27482;-72
2023/12/03 05:40:52;;;;;;;35.92;17.90;;;-2.80;99.90;;;;;;494050;241;27557;-72
2023/12/03 05:42:53;;;;;;;32.95;18.55;;;-2.80;99.90;;;;;;493955;241;27995;-71
2023/12/03 05:44:54;;;;;;;39.17;18.48;;;-2.70;99.90;;;;;;493944;241;27911;-72
2023/12/03 05:46:55;;;;;;;35.30;17.60;;;-2.80;99.90;;;;;;493973;241;27428;-75
2023/12/03 05:48:56;;;;;;;31.12;17.65;;;-2.80;99.90;;;;;;494018;241;27413;-72
2023/12/03 05:50:58;;;;;;;30.05;16.20;;;-2.80;99.90;;;;;;494031;241;27516;-72
2023/12/03 05:52:59;;;;;;;32.53;17.52;;;-2.80;99.90;;;;;;494093;241;27573;-72
2023/12/03 05:55:00;;;;;;;30.95;17.10;;;-2.80;99.90;;;;;;494086;241;27253;-72
2023/12/03 05:57:02;;;;;;;32.60;18.25;;;-2.80;99.90;;;;;;494033;241;27679;-72
2023/12/03 05:59:03;;;;;;;32.60;18.33;;;-2.70;99.90;;;;;;494040;241;27553;-72
2023/12/03 06:01:04;;;;;;;29.92;17.08;;;-2.70;99.90;;;;;;494052;241;27505;-72
2023/12/03 06:03:05;;;;;;;33.72;18.45;;;-2.70;99.90;;;;;;494050;241;27311;-72
2023/12/03 06:05:07;;;;;;;32.97;18.05;;;-2.80;99.90;;;;;;494096;241;27204;-72
2023/12/03 06:07:08;;;;;;;29.50;16.30;;;-2.80;99.90;;;;;;494034;237;27229;-73
2023/12/03 06:09:09;;;;;;;28.95;16.90;;;-2.80;99.90;;;;;;494004;241;27633;-72
2023/12/03 06:11:10;;;;;;;26.92;15.30;;;-2.70;99.90;;;;;;493896;241;27804;-72
2023/12/03 06:13:12;;;;;;;34.95;18.33;;;-2.70;99.90;;;;;;493955;241;27445;-74
2023/12/03 06:15:13;;;;;;;29.35;15.63;;;-2.70;99.90;;;;;;493955;241;27109;-71
2023/12/03 06:17:14;;;;;;;33.28;16.35;;;-2.70;99.90;;;;;;494007;239;27305;-72
2023/12/03 06:19:17;;;;;;;28.23;15.82;;;-2.70;99.90;;;;;;493920;241;27266;-72
2023/12/03 06:21:17;;;;;;;29.55;17.33;;;-2.70;99.90;;;;;;493920;241;28065;-72
2023/12/03 06:23:18;;;;;;;35.28;17.65;;;-2.70;99.90;;;;;;494024;241;27906;-73
2023/12/03 06:25:19;;;;;;;31.45;17.48;;;-2.70;99.90;;;;;;494026;241;27286;-71
2023/12/03 06:27:20;;;;;;;34.22;18.35;;;-2.70;99.90;;;;;;493948;241;27509;-73
2023/12/03 06:29:22;;;;;;;35.58;18.42;;;-2.70;99.90;;;;;;494002;241;27544;-71
2023/12/03 06:31:23;;;;;;;27.30;15.73;;;-2.70;99.90;;;;;;494080;241;27490;-72
2023/12/03 06:33:24;;;;;;;33.10;17.17;;;-2.70;99.90;;;;;;494068;241;27419;-73
2023/12/03 06:35:25;;;;;;;33.22;17.02;;;-2.70;99.90;;;;;;493997;241;27901;-72
2023/12/03 06:37:27;;;;;;;34.97;18.80;;;-2.70;99.90;;;;;;493993;241;27515;-72
2023/12/03 06:39:28;;;;;;;29.70;16.85;;;-2.80;99.90;;;;;;494041;241;27425;-73
2023/12/03 06:41:29;;;;;;;30.80;17.08;;;-2.80;99.90;;;;;;493993;241;27560;-72
2023/12/03 06:43:30;;;;;;;32.55;16.73;;;-2.80;99.90;;;;;;493993;241;27343;-72
2023/12/03 06:45:32;;;;;;;29.15;16.90;;;-2.80;99.90;;;;;;494037;241;27381;-71
2023/12/03 06:47:33;;;;;;;25.42;14.60;;;-2.90;99.90;;;;;;493998;241;27925;-72
2023/12/03 06:49:34;;;;;;;29.20;15.27;;;-2.90;99.90;;;;;;494020;241;28039;-73
2023/12/03 06:51:36;;;;;;;32.25;16.73;;;-2.90;99.90;;;;;;494081;237;27487;-73
2023/12/03 06:53:37;;;;;;;29.87;16.65;;;-2.90;99.90;;;;;;494076;241;27405;-73
2023/12/03 06:55:38;;;;;;;33.20;16.35;;;-2.90;99.90;;;;;;494047;241;27369;-75
2023/12/03 06:57:39;;;;;;;32.97;18.40;;;-2.90;99.90;;;;;;493998;241;27447;-72
2023/12/03 06:59:41;;;;;;;30.98;15.95;;;-2.90;99.90;;;;;;493988;241;27784;-72
2023/12/03 07:01:42;;;;;;;33.78;16.55;;;-3.00;99.90;;;;;;493999;241;29029;-72
2023/12/03 07:03:43;;;;;;;31.58;15.98;;;-3.10;99.90;;;;;;494008;241;27274;-71
2023/12/03 07:05:44;;;;;;;29.85;16.42;;;-3.20;99.90;;;;;;494063;241;27281;-74
2023/12/03 07:07:50;;;;;;;31.30;16.12;;;-3.20;99.90;;;;;;494050;241;27162;-72
2023/12/03 07:09:50;;;;;;;31.67;16.40;;;-3.30;99.90;;;;;;493906;241;27209;-71
2023/12/03 07:11:51;;;;;;;29.37;15.52;;;-3.30;99.90;;;;;;494048;241;27182;-71
2023/12/03 07:13:52;;;;;;;31.92;17.33;;;-3.30;99.90;;;;;;494000;241;27387;-73
2023/12/03 07:15:55;;;;;;;39.08;18.30;;;;;;;;;;494011;241;27601;-71
2023/12/03 07:17:57;;;;;;;33.65;16.62;;;;;;;;;;493990;241;26563;-71
2023/12/03 07:19:58;;;;;;;28.30;15.15;;;-3.40;99.90;;;;;;494000;241;27408;-72
2023/12/03 07:22:00;;;;;;;32.35;16.23;;;-3.30;99.90;;;;;;494028;241;27174;-71
2023/12/03 07:24:03;;;;;;;30.77;16.48;;;;;;;;;;494014;241;27181;-72
2023/12/03 07:26:03;;;;;;;32.20;16.15;;;-3.50;99.90;;;;;;494059;240;27127;-72
2023/12/03 07:28:05;;;;;;;33.67;16.50;;;-3.40;99.90;;;;;;494053;241;27166;-74
2023/12/03 07:30:06;;;;;;;31.25;16.15;;;-3.40;99.90;;;;;;494016;241;27128;-71
2023/12/03 07:32:07;;;;;;;28.90;15.93;;;-3.40;99.90;;;;;;494003;241;27105;-72
2023/12/03 07:34:10;;;;;;;29.98;17.08;;;;;;;;;;494047;237;27111;-71
2023/12/03 07:36:12;;;;;;;28.83;15.13;;;;;;;;;;494060;241;26651;-71
2023/12/03 07:38:15;;;;;;;32.42;16.83;;;;;;;;;;493976;241;27307;-74
2023/12/03 07:40:16;;;;;;;31.37;17.73;;;-3.50;99.90;;;;;;494006;241;26732;-73
2023/12/03 07:42:17;;;;;;;28.73;16.00;;;-3.60;99.90;;;;;;494005;241;27072;-73
2023/12/03 07:44:20;;;;;;;29.10;15.52;;;;;;;;;;493976;238;27520;-71
2023/12/03 07:46:22;;;;;;;30.83;16.37;;;;;;;;;;494022;241;26723;-72
2023/12/03 07:48:23;;;;;;;31.73;16.83;;;-3.60;99.90;;;;;;494033;241;27245;-72
2023/12/03 07:50:26;;;;;;;32.97;15.52;;;;;;;;;;493966;241;27130;-71
2023/12/03 07:52:28;;;;;;;31.55;15.77;;;;;;;;;;493968;240;26775;-71
2023/12/03 07:54:29;;;;;;;30.65;15.07;;;-3.60;99.90;;;;;;493981;241;26656;-71
2023/12/03 07:56:32;;;;;;;30.25;16.60;;;;;;;;;;494008;241;27048;-71
2023/12/03 07:58:35;;;;;;;33.60;17.98;;;;;;;;;;493986;241;26631;-71
2023/12/03 08:00:35;;;;;;;30.80;17.12;;;-3.60;99.90;;;;;;493999;240;26756;-72
2023/12/03 08:02:37;;;;;;;25.00;14.23;;;-3.50;99.90;;;;;;494078;237;27554;-72
2023/12/03 08:04:38;;;;;;;34.75;18.30;;;-3.50;99.90;;;;;;494060;241;27228;-72
2023/12/03 08:06:39;;;;;;;29.58;15.45;;;-3.50;99.90;;;;;;494051;237;27273;-72
2023/12/03 08:08:42;;;;;;;32.42;17.80;;;;;;;;;;494079;241;27134;-72
2023/12/03 08:10:43;;;;;;;29.40;16.42;;;-3.50;99.90;;;;;;494078;241;27883;-72
2023/12/03 08:12:44;;;;;;;28.90;16.45;;;-3.50;99.90;;;;;;494047;241;27176;-73
2023/12/03 08:14:45;;;;;;;30.17;17.25;;;-3.40;99.90;;;;;;493990;241;27082;-73
2023/12/03 08:16:48;;;;;;;29.87;16.65;;;;;;;;;;493984;241;27060;-72
2023/12/03 08:18:50;;;;;;;30.70;16.00;;;;;;;;;;493996;241;26640;-71
2023/12/03 08:20:51;;;;;;;31.15;16.05;;;-3.40;99.90;;;;;;494000;241;26785;-73
2023/12/03 08:22:53;;;;;;;28.10;15.85;;;-3.40;99.90;;;;;;493986;237;27597;-71
2023/12/03 08:24:54;;;;;;;35.03;17.23;;;-3.40;99.90;;;;;;493990;241;27657;-72
2023/12/03 08:26:57;;;;;;;29.37;16.00;;;;;;;;;;494061;241;27387;-72
2023/12/03 08:28:58;;;;;;;31.95;16.60;;;-3.40;99.90;;;;;;494091;241;27040;-72
2023/12/03 08:30:59;;;;;;;30.35;17.17;;;-3.30;99.90;;;;;;494044;241;27614;-71
2023/12/03 08:33:00;;;;;;;26.25;15.10;;;-3.30;99.90;;;;;;494051;241;27144;-71
2023/12/03 08:35:01;;;;;;;32.17;16.62;;;-3.30;99.90;;;;;;493998;241;27366;-74
2023/12/03 08:37:03;;;;;;;35.03;18.05;;;-3.30;99.90;;;;;;494031;241;27394;-72
2023/12/03 08:39:07;;;;;;;28.75;15.63;;;-3.30;99.90;;;;;;494057;241;27196;-72
2023/12/03 08:41:05;;;;;;;32.22;15.88;;;-3.20;99.90;;;;;;493761;241;27167;-71
2023/12/03 08:43:07;;;;;;;33.97;17.50;;;-3.20;99.90;;;;;;494011;241;27816;-72
2023/12/03 08:45:08;;;;;;;33.25;17.50;;;-3.20;99.90;;;;;;494028;241;27394;-74
2023/12/03 08:47:09;;;;;;;30.15;15.93;;;-3.20;99.90;;;;;;494028;241;27136;-71
2023/12/03 08:49:11;;;;;;;29.17;16.45;;;-3.20;99.90;;;;;;494010;241;27191;-72
2023/12/03 08:51:12;;;;;;;32.65;17.58;;;-3.20;99.90;;;;;;493996;241;27712;-73
2023/12/03 08:53:13;;;;;;;26.35;14.90;;;-3.10;99.90;;;;;;494055;241;27220;-72
2023/12/03 08:55:14;;;;;;;32.10;17.45;;;-3.10;99.90;;;;;;494025;241;27760;-72
2023/12/03 08:57:15;;;;;;;28.85;16.40;;;-3.10;99.90;;;;;;494009;241;28814;-72
2023/12/03 08:59:17;;;;;;;31.35;17.10;;;-3.10;99.90;;;;;;494002;241;27357;-72
2023/12/03 09:01:20;;;;;;;29.87;15.65;;;-3.10;99.90;;;;;;494014;241;27373;-72
2023/12/03 09:03:19;;;;;;;32.53;16.23;;;-3.10;99.90;;;;;;493824;237;27273;-72
2023/12/03 09:05:20;;;;;;;28.02;15.45;;;-3.00;99.90;;;;;;493978;241;27481;-72
2023/12/03 09:07:22;;;;;;;29.75;16.75;;;-3.00;99.90;;;;;;493991;241;28363;-72
2023/12/03 09:09:23;;;;;;;27.92;15.55;;;-3.00;99.90;;;;;;494074;241;28675;-72
2023/12/03 09:11:24;;;;;;;32.50;16.77;;;-3.00;99.90;;;;;;494040;241;27357;-73
2023/12/03 09:13:25;;;;;;;31.42;17.92;;;-2.90;99.90;;;;;;494095;241;27156;-72
2023/12/03 09:15:27;;;;;;;31.60;17.25;;;-2.90;99.90;;;;;;494070;241;27408;-72
2023/12/03 09:17:28;;;;;;;32.08;17.40;;;-2.90;99.90;;;;;;494106;241;28072;-73
2023/12/03 09:19:29;;;;;;;32.45;18.08;;;-2.90;99.90;;;;;;494097;241;27166;-72
2023/12/03 09:21:30;;;;;;;30.75;17.27;;;-2.80;99.90;;;;;;494077;241;28051;-71
2023/12/03 09:23:33;;;;;;;33.10;17.27;;;-2.80;99.90;;;;;;494087;239;27344;-72
2023/12/03 09:25:33;;;;;;;29.42;16.10;;;-2.70;99.90;;;;;;493937;241;27279;-72
2023/12/03 09:27:34;;;;;;;32.60;17.08;;;-2.70;99.90;;;;;;493958;241;27306;-73
2023/12/03 09:29:36;;;;;;;30.95;16.73;;;-2.70;99.90;;;;;;493968;241;27265;-72
2023/12/03 09:31:39;;;;;;;28.08;15.55;;;-2.70;99.90;;;;;;493979;241;27185;-72
2023/12/03 09:33:38;;;;;;;32.05;17.80;;;-2.60;99.90;;;;;;493842;241;27946;-72
2023/12/03 09:35:39;;;;;;;32.88;16.95;;;-2.60;99.90;;;;;;494051;241;28671;-71
2023/12/03 09:37:41;;;;;;;27.23;16.62;;;-2.60;99.90;;;;;;494060;239;27417;-73
2023/12/03 09:39:42;;;;;;;32.13;17.65;;;-2.60;99.90;;;;;;494044;241;27204;-71
2023/12/03 09:41:43;;;;;;;33.60;17.37;;;-2.60;99.90;;;;;;494032;241;27300;-73
2023/12/03 09:43:44;;;;;;;31.98;16.98;;;-2.50;99.90;;;;;;494024;241;27388;-74
2023/12/03 09:45:46;;;;;;;31.33;16.67;;;-2.50;99.90;;;;;;493991;241;27485;-71
2023/12/03 09:47:47;;;;;;;35.47;18.20;;;-2.50;99.90;;;;;;493981;241;27334;-72
2023/12/03 09:49:48;;;;;;;30.48;15.60;;;-2.50;99.90;;;;;;493965;241;27457;-71
2023/12/03 09:51:49;;;;;;;32.17;16.65;;;-2.40;99.90;;;;;;493996;241;27482;-73
2023/12/03 09:53:51;;;;;;;36.53;18.73;;;-2.40;99.90;;;;;;494050;241;28091;-73
2023/12/03 09:55:53;;;;;;;26.25;15.15;;;-2.40;99.90;;;;;;493955;241;27458;-72
2023/12/03 09:57:53;;;;;;;31.02;17.33;;;-2.40;99.90;;;;;;493923;241;27541;-72
2023/12/03 09:59:54;;;;;;;23.62;14.02;;;-2.40;99.90;;;;;;494007;241;27837;-72
2023/12/03 10:01:56;;;;;;;29.55;16.20;;;-2.30;99.90;;;;;;494005;241;27462;-71
2023/12/03 10:03:57;;;;;;;27.27;15.85;;;-2.30;99.90;;;;;;493996;241;27588;-72
2023/12/03 10:05:58;;;;;;;25.00;13.80;;;-2.30;99.90;;;;;;493962;241;28083;-72
2023/12/03 10:07:59;;;;;;;26.30;15.05;;;-2.30;99.90;;;;;;493966;241;27978;-72
2023/12/03 10:10:01;;;;;;;29.50;16.02;;;-2.20;99.90;;;;;;494069;241;27508;-74
2023/12/03 10:12:02;;;;;;;24.80;14.95;;;-2.20;99.90;;;;;;494032;241;27454;-72
2023/12/03 10:14:05;;;;;;;25.95;15.20;;;-2.20;99.90;;;;;;494032;239;27494;-72
2023/12/03 10:16:05;;;;;;;27.87;14.80;;;-2.20;99.90;;;;;;493788;241;27522;-71
2023/12/03 10:18:06;;;;;;;26.70;14.20;;;-2.20;99.90;;;;;;493987;241;28004;-72
2023/12/03 10:20:07;;;;;;;26.42;13.82;;;-2.10;99.90;;;;;;493968;241;29078;-73
2023/12/03 10:22:08;;;;;;;27.87;15.68;;;-2.20;99.90;;;;;;493993;241;27525;-72
2023/12/03 10:24:10;;;;;;;27.05;14.60;;;-2.20;99.90;;;;;;493968;241;27537;-72
2023/12/03 10:26:11;;;;;;;29.92;15.07;;;-2.10;99.90;;;;;;493946;241;27845;-73
2023/12/03 10:28:12;;;;;;;30.73;15.50;;;-2.00;99.90;;;;;;493981;237;27485;-72